Isle of North Uist, United Kingdom
Current Conditions -  °F | °C
As of 6:50 PM on Thursday 23 Oct 2014 (Local Time) from EGPL Reporting Station
Rain Showers Rain Showers  
Wind Chill: 50°   Ceiling: Unl
Heat Index: 50°   Visibility: 6mi
Dew Point: 46°   Wind: 23mph
Humidity: 87%   Direction: 230°SW
Pressure: 29.53"   Gusts: NA
Location:  57.6°N, 7.16°W
Report Text: EGPL 231750Z 23020KT 9999 -SHRA FEW011 SCT025 10/08 Q1000
Loading
Personal Weather Stations






























Interactive Weather Map New forecast layout! Learn more

10-Day Weather Forecast

Advertisements
Track Severe Weather on mobile